createdAt,value
2022-08-11T00:01:16.159Z,21.30
2022-08-11T00:03:55.919Z,21.30
2022-08-11T00:06:39.319Z,21.30
2022-08-11T00:09:12.827Z,21.30
2022-08-11T00:11:51.922Z,21.20
2022-08-11T00:14:18.604Z,21.20
2022-08-11T00:16:59.497Z,21.20
2022-08-11T00:20:12.477Z,21.20
2022-08-11T00:22:37.948Z,21.10
2022-08-11T00:25:12.986Z,21.10
2022-08-11T00:27:42.030Z,21.00
2022-08-11T00:30:10.688Z,21.00
2022-08-11T00:32:43.700Z,21.00
2022-08-11T00:35:52.014Z,20.90
2022-08-11T00:38:06.912Z,20.90
2022-08-11T00:40:48.692Z,20.90
2022-08-11T00:43:28.068Z,20.80
2022-08-11T00:46:13.294Z,20.70
2022-08-11T00:49:07.225Z,20.80
2022-08-11T00:52:04.256Z,20.80
2022-08-11T00:54:43.768Z,20.70
2022-08-11T00:57:36.079Z,20.70
2022-08-11T01:00:14.873Z,20.70
2022-08-11T01:03:00.138Z,20.60
2022-08-11T01:05:49.014Z,20.50
2022-08-11T01:08:42.420Z,20.50
2022-08-11T01:11:55.980Z,20.50
2022-08-11T01:14:44.705Z,20.40
2022-08-11T01:17:26.522Z,20.40
2022-08-11T01:20:47.307Z,20.40
2022-08-11T01:23:17.440Z,20.40
2022-08-11T01:26:01.405Z,20.30
2022-08-11T01:28:52.221Z,20.30
2022-08-11T01:31:23.677Z,20.40
2022-08-11T01:34:43.874Z,20.40
2022-08-11T01:37:29.320Z,20.30
2022-08-11T01:40:38.144Z,20.30
2022-08-11T01:43:59.325Z,20.20
2022-08-11T01:46:39.542Z,20.10
2022-08-11T01:50:09.457Z,20.10
2022-08-11T01:52:40.316Z,20.10
2022-08-11T01:55:19.529Z,20.00
2022-08-11T01:58:02.738Z,20.00
2022-08-11T02:00:32.557Z,20.00
2022-08-11T02:03:18.165Z,19.90
2022-08-11T02:06:02.735Z,20.00
2022-08-11T02:08:50.588Z,20.00
2022-08-11T02:11:35.457Z,19.90
2022-08-11T02:14:28.507Z,19.90
2022-08-11T02:17:21.241Z,20.00
2022-08-11T02:20:22.220Z,20.00
2022-08-11T02:23:07.710Z,19.90
2022-08-11T02:25:52.371Z,19.90
2022-08-11T02:28:34.637Z,19.80
2022-08-11T02:32:15.511Z,19.80
2022-08-11T02:34:59.799Z,19.80
2022-08-11T02:37:33.278Z,19.80
2022-08-11T02:40:03.492Z,19.70
2022-08-11T02:42:50.982Z,19.70
2022-08-11T02:45:39.859Z,19.70
2022-08-11T02:48:43.369Z,19.60
2022-08-11T02:51:29.014Z,19.60
2022-08-11T02:54:26.678Z,19.60
2022-08-11T02:57:11.539Z,19.50
2022-08-11T03:00:07.368Z,19.50
2022-08-11T03:03:11.318Z,19.50
2022-08-11T03:05:45.248Z,19.40
2022-08-11T03:08:39.793Z,19.40
2022-08-11T03:11:38.203Z,19.40
2022-08-11T03:14:47.357Z,19.30
2022-08-11T03:17:36.927Z,19.20
2022-08-11T03:20:24.152Z,19.20
2022-08-11T03:23:02.940Z,19.20
2022-08-11T03:25:36.869Z,19.20
2022-08-11T03:28:47.290Z,19.20
2022-08-11T03:31:32.629Z,19.20
2022-08-11T03:34:27.973Z,19.20
2022-08-11T03:37:16.920Z,19.20
2022-08-11T03:40:09.599Z,19.10
2022-08-11T03:42:46.383Z,19.20
2022-08-11T03:45:28.440Z,19.10
2022-08-11T03:48:09.446Z,19.10
2022-08-11T03:50:55.670Z,19.10
2022-08-11T03:53:43.611Z,19.10
2022-08-11T03:56:37.463Z,19.10
2022-08-11T03:59:38.300Z,19.10
2022-08-11T04:02:39.444Z,19.00
2022-08-11T04:05:43.577Z,19.00
2022-08-11T04:08:35.407Z,19.00
2022-08-11T04:11:23.882Z,19.00
2022-08-11T04:14:39.772Z,18.90
2022-08-11T04:17:28.783Z,18.90
2022-08-11T04:20:16.888Z,19.00
2022-08-11T04:23:03.453Z,18.90
2022-08-11T04:25:57.600Z,18.90
2022-08-11T04:28:50.881Z,18.90
2022-08-11T04:31:50.546Z,18.80
2022-08-11T04:35:08.273Z,18.90
2022-08-11T04:37:53.212Z,18.90
2022-08-11T04:41:08.847Z,18.90
2022-08-11T04:44:02.751Z,18.90
2022-08-11T04:46:58.566Z,18.90
2022-08-11T04:49:43.786Z,18.80
2022-08-11T04:52:47.701Z,18.90
2022-08-11T04:56:22.012Z,18.90
2022-08-11T04:59:30.366Z,18.90
2022-08-11T05:02:30.926Z,18.90
2022-08-11T05:05:28.325Z,18.90
2022-08-11T05:08:32.481Z,18.90
2022-08-11T05:11:17.879Z,19.00
2022-08-11T05:14:09.136Z,19.10
2022-08-11T05:17:19.029Z,19.10
2022-08-11T05:20:06.198Z,19.10
2022-08-11T05:22:53.781Z,19.10
2022-08-11T05:26:44.690Z,19.20
2022-08-11T05:29:21.031Z,19.20
2022-08-11T05:32:16.528Z,19.20
2022-08-11T05:34:55.174Z,19.30
2022-08-11T05:37:33.057Z,19.30
2022-08-11T05:40:30.521Z,19.30
2022-08-11T05:43:21.116Z,19.40
2022-08-11T05:46:20.346Z,19.50
2022-08-11T05:49:07.009Z,19.60
2022-08-11T05:52:05.778Z,19.70
2022-08-11T05:55:00.135Z,19.80
2022-08-11T05:57:51.256Z,19.90
2022-08-11T06:00:19.440Z,20.10
2022-08-11T06:02:51.289Z,20.20
2022-08-11T06:05:19.580Z,20.30
2022-08-11T06:07:50.074Z,20.40
2022-08-11T06:10:30.670Z,20.50
2022-08-11T06:13:01.093Z,20.60
2022-08-11T06:15:30.019Z,20.70
2022-08-11T06:18:00.028Z,20.80
2022-08-11T06:20:32.648Z,20.90
2022-08-11T06:23:03.785Z,21.10
2022-08-11T06:25:35.823Z,21.10
2022-08-11T06:28:08.383Z,21.30
2022-08-11T06:30:42.748Z,21.40
2022-08-11T06:33:33.846Z,21.50
2022-08-11T06:36:13.105Z,21.60
2022-08-11T06:39:00.400Z,21.80
2022-08-11T06:41:40.781Z,21.90
2022-08-11T06:44:13.411Z,22.00
2022-08-11T06:46:42.884Z,22.10
2022-08-11T06:49:31.268Z,22.20
2022-08-11T06:52:04.403Z,22.30
2022-08-11T06:54:41.263Z,22.50
2022-08-11T06:57:32.461Z,22.60
2022-08-11T07:00:28.090Z,22.80
2022-08-11T07:03:10.469Z,22.80
2022-08-11T07:05:55.602Z,22.90
2022-08-11T07:08:44.115Z,23.10
2022-08-11T07:12:07.484Z,23.20
2022-08-11T07:14:59.931Z,23.30
2022-08-11T07:17:30.416Z,23.50
2022-08-11T07:20:20.020Z,23.60
2022-08-11T07:23:14.628Z,23.80
2022-08-11T07:26:03.347Z,24.00
2022-08-11T07:28:50.286Z,24.10
2022-08-11T07:31:42.214Z,24.30
2022-08-11T07:34:15.907Z,24.50
2022-08-11T07:37:09.393Z,24.60
2022-08-11T07:39:37.988Z,24.80
2022-08-11T07:42:10.766Z,24.90
2022-08-11T07:44:57.797Z,25.00
2022-08-11T07:47:44.072Z,25.00
2022-08-11T07:50:31.072Z,25.20
2022-08-11T07:52:59.474Z,25.30
2022-08-11T07:55:50.263Z,25.50
2022-08-11T07:58:44.858Z,25.60
2022-08-11T08:01:37.066Z,25.60
2022-08-11T08:04:24.208Z,25.80
2022-08-11T08:07:10.337Z,26.00
2022-08-11T08:09:56.852Z,26.10
2022-08-11T08:12:43.961Z,26.10
2022-08-11T08:15:31.454Z,26.10
2022-08-11T08:18:09.776Z,26.30
2022-08-11T08:20:50.444Z,26.40
2022-08-11T08:23:38.427Z,26.50
2022-08-11T08:26:31.292Z,26.50
2022-08-11T08:29:20.542Z,26.40
2022-08-11T08:31:50.892Z,26.40
2022-08-11T08:34:18.781Z,26.50
2022-08-11T08:36:48.628Z,26.60
2022-08-11T08:39:20.619Z,26.60
2022-08-11T08:41:52.834Z,26.70
2022-08-11T08:44:37.790Z,26.70
2022-08-11T08:47:10.640Z,26.90
2022-08-11T08:49:46.663Z,26.90
2022-08-11T08:52:39.179Z,27.00
2022-08-11T08:55:05.671Z,26.90
2022-08-11T08:57:39.377Z,27.00
2022-08-11T09:00:12.532Z,27.10
2022-08-11T09:02:39.875Z,27.10
2022-08-11T09:05:09.968Z,27.20
2022-08-11T09:07:38.681Z,27.30
2022-08-11T09:10:11.052Z,27.20
2022-08-11T09:12:42.641Z,27.20
2022-08-11T09:15:11.823Z,27.10
2022-08-11T09:17:48.283Z,27.20
2022-08-11T09:20:21.537Z,27.30
2022-08-11T09:26:15.676Z,27.70
2022-08-11T09:28:44.178Z,28.10
2022-08-11T09:31:13.347Z,27.90
2022-08-11T09:33:42.701Z,28.00
2022-08-11T09:36:30.732Z,28.20
2022-08-11T09:39:16.722Z,28.70
2022-08-11T09:42:00.489Z,29.40
2022-08-11T09:44:48.836Z,29.70
2022-08-11T09:47:26.076Z,29.80
2022-08-11T09:50:02.644Z,29.80
2022-08-11T09:52:32.802Z,29.80
2022-08-11T09:55:00.897Z,29.90
2022-08-11T09:57:46.276Z,30.20
2022-08-11T10:00:15.156Z,30.00
2022-08-11T10:02:45.936Z,29.90
2022-08-11T10:05:36.767Z,29.80
2022-08-11T10:08:05.108Z,29.80
2022-08-11T10:10:36.939Z,30.00
2022-08-11T10:14:03.758Z,30.00
2022-08-11T10:16:14.434Z,29.90
2022-08-11T10:18:49.174Z,29.90
2022-08-11T10:21:28.242Z,29.70
2022-08-11T10:24:16.688Z,29.70
2022-08-11T10:27:00.695Z,29.80
2022-08-11T10:29:49.894Z,29.90
2022-08-11T10:32:52.197Z,29.70
2022-08-11T10:35:29.475Z,29.90
2022-08-11T10:38:08.492Z,29.90
2022-08-11T10:40:37.781Z,30.00
2022-08-11T10:43:10.625Z,30.00
2022-08-11T10:46:01.219Z,30.20
2022-08-11T10:48:30.114Z,30.20
2022-08-11T10:51:13.866Z,30.20
2022-08-11T10:54:05.300Z,30.20
2022-08-11T10:56:54.607Z,30.00
2022-08-11T10:59:23.296Z,30.00
2022-08-11T11:01:52.447Z,29.80
2022-08-11T11:04:33.875Z,29.70
2022-08-11T11:07:16.147Z,29.70
2022-08-11T11:09:51.660Z,29.60
2022-08-11T11:12:52.625Z,29.50
2022-08-11T11:15:41.066Z,29.60
2022-08-11T11:18:11.992Z,29.60
2022-08-11T11:20:47.303Z,29.60
2022-08-11T11:23:26.220Z,29.40
2022-08-11T11:26:10.998Z,29.50
2022-08-11T11:28:47.295Z,29.70
2022-08-11T11:31:33.408Z,29.70
2022-08-11T11:34:13.147Z,29.80
2022-08-11T11:36:58.242Z,29.80
2022-08-11T11:39:27.699Z,29.90
2022-08-11T11:42:02.167Z,29.80
2022-08-11T11:44:30.103Z,30.00
2022-08-11T11:46:58.046Z,30.10
2022-08-11T11:49:28.441Z,30.10
2022-08-11T11:51:57.020Z,30.10
2022-08-11T11:54:27.708Z,30.00
2022-08-11T11:56:56.467Z,30.00
2022-08-11T11:59:44.272Z,30.20
2022-08-11T12:02:15.019Z,30.10
2022-08-11T12:04:45.102Z,30.00
2022-08-11T12:07:30.986Z,30.00
2022-08-11T12:09:59.017Z,30.20
2022-08-11T12:12:45.291Z,30.10
2022-08-11T12:15:13.014Z,30.10
2022-08-11T12:17:40.452Z,30.20
2022-08-11T12:20:30.808Z,30.20
2022-08-11T12:23:15.206Z,30.20
2022-08-11T12:26:26.410Z,30.20
2022-08-11T12:28:50.592Z,30.30
2022-08-11T12:31:17.704Z,30.20
2022-08-11T12:33:44.612Z,30.20
2022-08-11T12:36:15.757Z,30.10
2022-08-11T12:38:46.708Z,30.00
2022-08-11T12:41:39.811Z,30.10
2022-08-11T12:44:27.812Z,30.20
2022-08-11T12:46:56.341Z,30.10
2022-08-11T12:49:45.518Z,30.00
2022-08-11T12:52:23.845Z,30.00
2022-08-11T12:55:11.009Z,30.00
2022-08-11T12:58:03.692Z,30.00
2022-08-11T13:00:50.732Z,29.90
2022-08-11T13:03:39.032Z,29.80
2022-08-11T13:06:07.463Z,29.90
2022-08-11T13:08:40.696Z,29.70
2022-08-11T13:11:56.198Z,29.80
2022-08-11T13:14:16.043Z,29.90
2022-08-11T13:17:02.699Z,29.90
2022-08-11T13:19:31.924Z,29.80
2022-08-11T13:22:00.761Z,29.90
2022-08-11T13:24:28.619Z,29.90
2022-08-11T13:26:56.289Z,29.90
2022-08-11T13:29:25.619Z,29.90
2022-08-11T13:31:56.157Z,30.00
2022-08-11T13:34:25.489Z,29.90
2022-08-11T13:36:54.847Z,29.90
2022-08-11T13:39:24.495Z,30.00
2022-08-11T13:41:55.091Z,29.90
2022-08-11T13:44:25.791Z,29.90
2022-08-11T13:46:56.841Z,29.80
2022-08-11T13:49:25.890Z,29.80
2022-08-11T13:51:54.154Z,29.90
2022-08-11T13:54:30.997Z,29.90
2022-08-11T13:57:03.307Z,29.90
2022-08-11T13:59:45.301Z,30.00
2022-08-11T14:02:29.238Z,30.00
2022-08-11T14:05:11.524Z,29.90
2022-08-11T14:07:40.987Z,29.80
2022-08-11T14:10:11.991Z,29.70
2022-08-11T14:13:01.836Z,29.70
2022-08-11T14:15:35.605Z,29.70
2022-08-11T14:18:13.703Z,29.60
2022-08-11T14:21:01.492Z,29.70
2022-08-11T14:23:35.485Z,29.70
2022-08-11T14:26:21.403Z,29.70
2022-08-11T14:28:48.559Z,29.70
2022-08-11T14:31:18.327Z,29.70
2022-08-11T14:33:59.860Z,29.60
2022-08-11T14:36:40.584Z,29.60
2022-08-11T14:39:13.889Z,29.60
2022-08-11T14:42:11.521Z,29.60
2022-08-11T14:45:03.987Z,29.60
2022-08-11T14:47:37.447Z,29.60
2022-08-11T14:50:10.253Z,29.60
2022-08-11T14:52:58.128Z,29.60
2022-08-11T14:55:44.055Z,29.60
2022-08-11T14:58:13.107Z,29.60
2022-08-11T15:00:42.219Z,29.60
2022-08-11T15:03:12.396Z,29.60
2022-08-11T15:05:52.395Z,29.60
2022-08-11T15:08:51.371Z,29.60
2022-08-11T15:11:39.229Z,29.50
2022-08-11T15:14:08.966Z,29.50
2022-08-11T15:16:58.576Z,29.50
2022-08-11T15:19:26.148Z,29.50
2022-08-11T15:22:11.599Z,29.50
2022-08-11T15:24:38.735Z,29.50
2022-08-11T15:27:33.688Z,29.50
2022-08-11T15:30:33.165Z,29.40
2022-08-11T15:33:23.373Z,29.40
2022-08-11T15:36:10.394Z,29.30
2022-08-11T15:38:42.695Z,29.40
2022-08-11T15:41:32.036Z,29.40
2022-08-11T15:44:17.888Z,29.40
2022-08-11T15:46:55.258Z,29.40
2022-08-11T15:50:11.188Z,29.40
2022-08-11T15:52:30.475Z,29.30
2022-08-11T15:55:02.258Z,29.30
2022-08-11T15:57:49.364Z,29.20
2022-08-11T16:00:35.964Z,29.20
2022-08-11T16:03:23.312Z,29.20
2022-08-11T16:05:52.984Z,29.20
2022-08-11T16:08:30.316Z,29.10
2022-08-11T16:11:00.869Z,29.10
2022-08-11T16:13:32.868Z,29.10
2022-08-11T16:16:17.099Z,29.10
2022-08-11T16:18:58.022Z,29.10
2022-08-11T16:21:34.848Z,29.00
2022-08-11T16:24:06.477Z,29.00
2022-08-11T16:27:08.361Z,29.00
2022-08-11T16:29:25.260Z,29.00
2022-08-11T16:32:14.388Z,28.90
2022-08-11T16:35:02.473Z,28.90
2022-08-11T16:37:51.780Z,28.80
2022-08-11T16:40:20.693Z,28.80
2022-08-11T16:43:11.123Z,28.80
2022-08-11T16:45:58.154Z,28.70
2022-08-11T16:48:36.214Z,28.70
2022-08-11T16:51:06.723Z,28.70
2022-08-11T16:53:59.993Z,28.70
2022-08-11T16:56:27.290Z,28.60
2022-08-11T16:59:16.560Z,28.60
2022-08-11T17:02:09.822Z,28.50
2022-08-11T17:05:02.026Z,28.50
2022-08-11T17:07:48.758Z,28.40
2022-08-11T17:10:53.754Z,28.40
2022-08-11T17:13:28.172Z,28.30
2022-08-11T17:16:10.020Z,28.30
2022-08-11T17:18:48.903Z,28.30
2022-08-11T17:22:07.767Z,28.20
2022-08-11T17:24:39.574Z,28.20
2022-08-11T17:27:08.856Z,28.20
2022-08-11T17:29:59.834Z,28.10
2022-08-11T17:32:57.023Z,28.10
2022-08-11T17:35:33.470Z,28.00
2022-08-11T17:38:16.568Z,28.00
2022-08-11T17:41:10.067Z,28.00
2022-08-11T17:44:05.117Z,27.90
2022-08-11T17:46:53.035Z,27.80
2022-08-11T17:49:21.087Z,27.80
2022-08-11T17:52:08.963Z,27.80
2022-08-11T17:54:56.039Z,27.70
2022-08-11T17:57:47.063Z,27.70
2022-08-11T18:00:15.392Z,27.70
2022-08-11T18:03:03.462Z,27.60
2022-08-11T18:05:43.557Z,27.60
2022-08-11T18:08:31.661Z,27.50
2022-08-11T18:12:06.996Z,27.50
2022-08-11T18:14:27.738Z,27.50
2022-08-11T18:17:13.134Z,27.40
2022-08-11T18:19:59.130Z,27.40
2022-08-11T18:22:49.901Z,27.40
2022-08-11T18:25:49.073Z,27.30
2022-08-11T18:28:37.939Z,27.30
2022-08-11T18:31:24.600Z,27.20
2022-08-11T18:34:16.610Z,27.20
2022-08-11T18:37:29.494Z,27.20
2022-08-11T18:40:27.054Z,27.20
2022-08-11T18:43:16.205Z,27.10
2022-08-11T18:46:06.818Z,27.10
2022-08-11T18:48:57.703Z,27.10
2022-08-11T18:51:44.257Z,27.00
2022-08-11T18:54:31.792Z,27.00
2022-08-11T18:57:21.928Z,26.90
2022-08-11T19:00:10.929Z,26.80
2022-08-11T19:02:57.780Z,26.80
2022-08-11T19:06:35.787Z,26.70
2022-08-11T19:08:53.763Z,26.70
2022-08-11T19:11:42.607Z,26.60
2022-08-11T19:14:30.870Z,26.60
2022-08-11T19:17:42.974Z,26.50
2022-08-11T19:20:29.064Z,26.50
2022-08-11T19:23:15.969Z,26.40
2022-08-11T19:26:03.785Z,26.30
2022-08-11T19:28:50.412Z,26.30
2022-08-11T19:31:39.835Z,26.30
2022-08-11T19:34:29.128Z,26.20
2022-08-11T19:37:15.526Z,26.10
2022-08-11T19:40:01.112Z,26.10
2022-08-11T19:42:48.196Z,26.10
2022-08-11T19:45:34.640Z,26.00
2022-08-11T19:48:31.830Z,26.00
2022-08-11T19:51:19.127Z,25.90
2022-08-11T19:54:07.122Z,25.90
2022-08-11T19:56:55.234Z,25.80
2022-08-11T19:59:41.781Z,25.70
2022-08-11T20:02:27.518Z,25.70
2022-08-11T20:05:12.731Z,25.70
2022-08-11T20:07:59.198Z,25.60
2022-08-11T20:10:47.961Z,25.50
2022-08-11T20:13:34.254Z,25.50
2022-08-11T20:16:21.782Z,25.50
2022-08-11T20:19:09.669Z,25.40
2022-08-11T20:21:57.676Z,25.30
2022-08-11T20:24:43.774Z,25.30
2022-08-11T20:27:31.507Z,25.30
2022-08-11T20:30:19.573Z,25.20
2022-08-11T20:33:06.590Z,25.20
2022-08-11T20:35:53.204Z,25.10
2022-08-11T20:38:41.275Z,25.00
2022-08-11T20:41:28.675Z,24.90
2022-08-11T20:44:16.081Z,24.90
2022-08-11T20:47:02.587Z,24.90
2022-08-11T20:49:55.215Z,24.80
2022-08-11T20:52:47.247Z,24.70
2022-08-11T20:55:52.111Z,24.60
2022-08-11T21:01:46.219Z,24.50
2022-08-11T21:04:32.530Z,24.50
2022-08-11T21:07:29.147Z,24.50
2022-08-11T21:10:24.024Z,24.40
2022-08-11T21:13:18.070Z,24.40
2022-08-11T21:16:25.564Z,24.30
2022-08-11T21:19:18.732Z,24.20
2022-08-11T21:22:06.400Z,24.20
2022-08-11T21:24:52.784Z,24.20
2022-08-11T21:27:39.878Z,24.10
2022-08-11T21:30:25.858Z,24.10
2022-08-11T21:33:13.457Z,24.00
2022-08-11T21:36:01.007Z,23.90
2022-08-11T21:38:47.934Z,23.80
2022-08-11T21:41:34.334Z,23.80
2022-08-11T21:44:19.973Z,23.80
2022-08-11T21:47:06.010Z,23.70
2022-08-11T21:49:53.487Z,23.70
2022-08-11T21:52:39.669Z,23.60
2022-08-11T21:55:25.978Z,23.60
2022-08-11T21:58:13.323Z,23.50
2022-08-11T22:00:58.960Z,23.50
2022-08-11T22:03:49.676Z,23.50
2022-08-11T22:06:36.342Z,23.40
2022-08-11T22:09:22.366Z,23.40
2022-08-11T22:12:33.496Z,23.40
2022-08-11T22:15:13.924Z,23.40
2022-08-11T22:17:59.547Z,23.30
2022-08-11T22:20:46.651Z,23.30
2022-08-11T22:23:35.930Z,23.20
2022-08-11T22:26:23.101Z,23.20
2022-08-11T22:29:09.542Z,23.10
2022-08-11T22:31:57.575Z,23.10
2022-08-11T22:34:52.655Z,23.10
2022-08-11T22:37:40.562Z,23.10
2022-08-11T22:40:27.941Z,23.10
2022-08-11T22:43:13.516Z,23.10
2022-08-11T22:45:59.098Z,23.10
2022-08-11T22:48:49.188Z,23.00
2022-08-11T22:51:38.633Z,23.00
2022-08-11T22:54:24.734Z,23.00
2022-08-11T22:57:10.362Z,22.90
2022-08-11T22:59:56.386Z,23.00
2022-08-11T23:02:44.395Z,22.90
2022-08-11T23:05:31.981Z,22.90
2022-08-11T23:08:18.369Z,22.90
2022-08-11T23:11:04.431Z,22.80
2022-08-11T23:13:51.332Z,22.70
2022-08-11T23:16:37.242Z,22.70
2022-08-11T23:20:07.224Z,22.70
2022-08-11T23:22:37.000Z,22.60
2022-08-11T23:25:35.056Z,22.60
2022-08-11T23:28:20.825Z,22.60
2022-08-11T23:31:08.259Z,22.50
2022-08-11T23:33:58.403Z,22.50
2022-08-11T23:36:47.672Z,22.40
2022-08-11T23:39:34.801Z,22.40
2022-08-11T23:42:21.694Z,22.30
2022-08-11T23:45:09.754Z,22.20
2022-08-11T23:47:57.366Z,22.20
2022-08-11T23:50:43.756Z,22.10
2022-08-11T23:53:29.908Z,22.10
2022-08-11T23:56:15.365Z,22.00
2022-08-11T23:59:01.002Z,22.00
